sensor_id;sensor_type;location;lat;lon;timestamp;P1;durP1;ratioP1;P2;durP2;ratioP2
209;SDS011;90;48.810;9.120;2023-05-23T00:01:08;71.90;;;34.17;;
209;SDS011;90;48.810;9.120;2023-05-23T00:03:35;72.80;;;34.90;;
209;SDS011;90;48.810;9.120;2023-05-23T00:06:04;83.37;;;34.57;;
209;SDS011;90;48.810;9.120;2023-05-23T00:08:32;77.93;;;34.03;;
209;SDS011;90;48.810;9.120;2023-05-23T00:10:58;76.93;;;35.53;;
209;SDS011;90;48.810;9.120;2023-05-23T00:13:25;76.37;;;34.03;;
209;SDS011;90;48.810;9.120;2023-05-23T00:15:52;77.67;;;35.20;;
209;SDS011;90;48.810;9.120;2023-05-23T00:18:20;84.80;;;36.90;;
209;SDS011;90;48.810;9.120;2023-05-23T00:20:48;87.27;;;36.27;;
209;SDS011;90;48.810;9.120;2023-05-23T00:23:15;81.23;;;35.80;;
209;SDS011;90;48.810;9.120;2023-05-23T00:25:44;80.23;;;34.87;;
209;SDS011;90;48.810;9.120;2023-05-23T00:28:16;76.30;;;34.77;;
209;SDS011;90;48.810;9.120;2023-05-23T00:30:43;88.20;;;35.47;;
209;SDS011;90;48.810;9.120;2023-05-23T00:33:10;81.57;;;36.40;;
209;SDS011;90;48.810;9.120;2023-05-23T00:35:39;88.83;;;35.30;;
209;SDS011;90;48.810;9.120;2023-05-23T00:38:06;80.63;;;36.40;;
209;SDS011;90;48.810;9.120;2023-05-23T00:40:33;92.03;;;38.30;;
209;SDS011;90;48.810;9.120;2023-05-23T00:43:00;95.30;;;38.27;;
209;SDS011;90;48.810;9.120;2023-05-23T00:45:26;87.63;;;39.20;;
209;SDS011;90;48.810;9.120;2023-05-23T00:47:53;94.83;;;39.33;;
209;SDS011;90;48.810;9.120;2023-05-23T00:50:20;84.80;;;37.50;;
209;SDS011;90;48.810;9.120;2023-05-23T00:52:48;89.57;;;39.77;;
209;SDS011;90;48.810;9.120;2023-05-23T00:55:15;91.57;;;41.50;;
209;SDS011;90;48.810;9.120;2023-05-23T00:57:42;95.20;;;41.97;;
209;SDS011;90;48.810;9.120;2023-05-23T01:00:09;102.47;;;43.00;;
209;SDS011;90;48.810;9.120;2023-05-23T01:02:38;112.93;;;41.57;;
209;SDS011;90;48.810;9.120;2023-05-23T01:05:09;97.50;;;42.80;;
209;SDS011;90;48.810;9.120;2023-05-23T01:07:38;109.50;;;44.57;;
209;SDS011;90;48.810;9.120;2023-05-23T01:10:07;106.97;;;43.50;;
209;SDS011;90;48.810;9.120;2023-05-23T01:12:36;101.75;;;42.47;;
209;SDS011;90;48.810;9.120;2023-05-23T01:15:11;108.07;;;43.80;;
209;SDS011;90;48.810;9.120;2023-05-23T01:17:42;117.33;;;45.67;;
209;SDS011;90;48.810;9.120;2023-05-23T01:20:15;112.60;;;45.17;;
209;SDS011;90;48.810;9.120;2023-05-23T01:22:59;118.77;;;46.60;;
209;SDS011;90;48.810;9.120;2023-05-23T01:25:45;124.27;;;46.23;;
209;SDS011;90;48.810;9.120;2023-05-23T01:28:28;113.37;;;44.77;;
209;SDS011;90;48.810;9.120;2023-05-23T01:30:58;120.63;;;47.10;;
209;SDS011;90;48.810;9.120;2023-05-23T01:33:27;129.10;;;49.70;;
209;SDS011;90;48.810;9.120;2023-05-23T01:35:55;119.23;;;46.93;;
209;SDS011;90;48.810;9.120;2023-05-23T01:38:23;126.83;;;49.03;;
209;SDS011;90;48.810;9.120;2023-05-23T01:40:50;134.17;;;49.80;;
209;SDS011;90;48.810;9.120;2023-05-23T01:43:16;122.70;;;49.90;;
209;SDS011;90;48.810;9.120;2023-05-23T01:45:44;120.37;;;50.83;;
209;SDS011;90;48.810;9.120;2023-05-23T01:48:11;124.33;;;49.30;;
209;SDS011;90;48.810;9.120;2023-05-23T01:50:40;132.30;;;50.27;;
209;SDS011;90;48.810;9.120;2023-05-23T01:53:09;131.97;;;50.40;;
209;SDS011;90;48.810;9.120;2023-05-23T01:55:37;141.73;;;54.57;;
209;SDS011;90;48.810;9.120;2023-05-23T01:58:06;136.53;;;50.80;;
209;SDS011;90;48.810;9.120;2023-05-23T02:00:33;145.97;;;54.77;;
209;SDS011;90;48.810;9.120;2023-05-23T02:03:01;133.53;;;51.17;;
209;SDS011;90;48.810;9.120;2023-05-23T02:05:29;141.37;;;51.90;;
209;SDS011;90;48.810;9.120;2023-05-23T02:07:56;147.83;;;52.90;;
209;SDS011;90;48.810;9.120;2023-05-23T02:10:23;144.97;;;53.47;;
209;SDS011;90;48.810;9.120;2023-05-23T02:12:50;122.05;;;52.33;;
209;SDS011;90;48.810;9.120;2023-05-23T02:15:17;132.13;;;51.83;;
209;SDS011;90;48.810;9.120;2023-05-23T02:17:43;135.17;;;52.30;;
209;SDS011;90;48.810;9.120;2023-05-23T02:20:11;143.23;;;54.30;;
209;SDS011;90;48.810;9.120;2023-05-23T02:22:38;139.03;;;53.93;;
209;SDS011;90;48.810;9.120;2023-05-23T02:25:05;147.80;;;56.42;;
209;SDS011;90;48.810;9.120;2023-05-23T02:27:33;144.27;;;56.13;;
209;SDS011;90;48.810;9.120;2023-05-23T02:29:59;137.60;;;53.37;;
209;SDS011;90;48.810;9.120;2023-05-23T02:32:26;131.77;;;53.00;;
209;SDS011;90;48.810;9.120;2023-05-23T02:34:53;150.17;;;56.77;;
209;SDS011;90;48.810;9.120;2023-05-23T02:37:21;131.57;;;55.07;;
209;SDS011;90;48.810;9.120;2023-05-23T02:39:48;145.60;;;54.00;;
209;SDS011;90;48.810;9.120;2023-05-23T02:42:14;153.00;;;58.50;;
209;SDS011;90;48.810;9.120;2023-05-23T02:44:41;136.87;;;53.17;;
209;SDS011;90;48.810;9.120;2023-05-23T02:47:08;155.27;;;55.87;;
209;SDS011;90;48.810;9.120;2023-05-23T02:49:34;136.83;;;54.30;;
209;SDS011;90;48.810;9.120;2023-05-23T02:52:01;140.17;;;56.13;;
209;SDS011;90;48.810;9.120;2023-05-23T02:54:29;133.67;;;52.30;;
209;SDS011;90;48.810;9.120;2023-05-23T02:56:56;139.17;;;55.87;;
209;SDS011;90;48.810;9.120;2023-05-23T02:59:23;135.00;;;54.43;;
209;SDS011;90;48.810;9.120;2023-05-23T03:01:50;140.60;;;55.83;;
209;SDS011;90;48.810;9.120;2023-05-23T03:04:17;136.23;;;53.63;;
209;SDS011;90;48.810;9.120;2023-05-23T03:06:44;134.50;;;53.93;;
209;SDS011;90;48.810;9.120;2023-05-23T03:09:11;139.10;;;53.40;;
209;SDS011;90;48.810;9.120;2023-05-23T03:11:41;141.13;;;54.83;;
209;SDS011;90;48.810;9.120;2023-05-23T03:14:07;120.40;;;51.60;;
209;SDS011;90;48.810;9.120;2023-05-23T03:16:34;130.93;;;55.37;;
209;SDS011;90;48.810;9.120;2023-05-23T03:19:01;132.80;;;52.27;;
209;SDS011;90;48.810;9.120;2023-05-23T03:21:28;132.50;;;54.63;;
209;SDS011;90;48.810;9.120;2023-05-23T03:23:55;119.53;;;49.50;;
209;SDS011;90;48.810;9.120;2023-05-23T03:26:22;123.27;;;50.77;;
209;SDS011;90;48.810;9.120;2023-05-23T03:28:50;138.50;;;51.70;;
209;SDS011;90;48.810;9.120;2023-05-23T03:31:17;123.37;;;52.10;;
209;SDS011;90;48.810;9.120;2023-05-23T03:33:43;124.33;;;53.00;;
209;SDS011;90;48.810;9.120;2023-05-23T03:36:10;120.88;;;53.60;;
209;SDS011;90;48.810;9.120;2023-05-23T03:38:37;118.80;;;49.20;;
209;SDS011;90;48.810;9.120;2023-05-23T03:41:03;114.83;;;50.07;;
209;SDS011;90;48.810;9.120;2023-05-23T03:43:30;126.40;;;50.23;;
209;SDS011;90;48.810;9.120;2023-05-23T03:45:58;121.30;;;50.70;;
209;SDS011;90;48.810;9.120;2023-05-23T03:48:25;118.00;;;50.13;;
209;SDS011;90;48.810;9.120;2023-05-23T03:50:51;113.73;;;51.23;;
209;SDS011;90;48.810;9.120;2023-05-23T03:53:18;116.37;;;49.03;;
209;SDS011;90;48.810;9.120;2023-05-23T03:55:45;115.23;;;49.13;;
209;SDS011;90;48.810;9.120;2023-05-23T03:58:12;120.33;;;53.80;;
209;SDS011;90;48.810;9.120;2023-05-23T04:00:38;117.20;;;50.07;;
209;SDS011;90;48.810;9.120;2023-05-23T04:03:06;116.27;;;49.80;;
209;SDS011;90;48.810;9.120;2023-05-23T04:05:34;133.33;;;48.43;;
209;SDS011;90;48.810;9.120;2023-05-23T04:08:01;116.80;;;52.73;;
209;SDS011;90;48.810;9.120;2023-05-23T04:10:27;115.83;;;47.77;;
209;SDS011;90;48.810;9.120;2023-05-23T04:12:54;105.53;;;47.13;;
209;SDS011;90;48.810;9.120;2023-05-23T04:15:21;122.07;;;50.67;;
209;SDS011;90;48.810;9.120;2023-05-23T04:17:48;114.63;;;49.37;;
209;SDS011;90;48.810;9.120;2023-05-23T04:20:17;112.23;;;48.53;;
209;SDS011;90;48.810;9.120;2023-05-23T04:22:44;113.13;;;50.23;;
209;SDS011;90;48.810;9.120;2023-05-23T04:25:11;121.60;;;50.20;;
209;SDS011;90;48.810;9.120;2023-05-23T04:27:37;118.10;;;52.53;;
209;SDS011;90;48.810;9.120;2023-05-23T04:30:05;106.97;;;48.50;;
209;SDS011;90;48.810;9.120;2023-05-23T04:32:33;99.73;;;46.63;;
209;SDS011;90;48.810;9.120;2023-05-23T04:35:00;115.07;;;49.13;;
209;SDS011;90;48.810;9.120;2023-05-23T04:37:29;100.67;;;47.43;;
209;SDS011;90;48.810;9.120;2023-05-23T04:39:56;105.17;;;46.47;;
209;SDS011;90;48.810;9.120;2023-05-23T04:42:24;108.27;;;48.13;;
209;SDS011;90;48.810;9.120;2023-05-23T04:44:50;125.67;;;48.40;;
209;SDS011;90;48.810;9.120;2023-05-23T04:47:17;93.10;;;47.03;;
209;SDS011;90;48.810;9.120;2023-05-23T04:49:44;104.40;;;47.27;;
209;SDS011;90;48.810;9.120;2023-05-23T04:52:11;103.03;;;47.67;;
209;SDS011;90;48.810;9.120;2023-05-23T04:54:39;103.70;;;48.40;;
209;SDS011;90;48.810;9.120;2023-05-23T04:57:08;101.27;;;47.67;;
209;SDS011;90;48.810;9.120;2023-05-23T04:59:36;99.63;;;48.57;;
209;SDS011;90;48.810;9.120;2023-05-23T05:02:03;107.90;;;49.13;;
209;SDS011;90;48.810;9.120;2023-05-23T05:04:30;101.70;;;49.13;;
209;SDS011;90;48.810;9.120;2023-05-23T05:06:57;112.57;;;48.73;;
209;SDS011;90;48.810;9.120;2023-05-23T05:09:24;94.07;;;46.47;;
209;SDS011;90;48.810;9.120;2023-05-23T05:11:52;102.80;;;45.27;;
209;SDS011;90;48.810;9.120;2023-05-23T05:14:19;98.43;;;46.67;;
209;SDS011;90;48.810;9.120;2023-05-23T05:16:46;101.57;;;47.97;;
209;SDS011;90;48.810;9.120;2023-05-23T05:19:14;98.93;;;45.70;;
209;SDS011;90;48.810;9.120;2023-05-23T05:21:41;92.53;;;45.17;;
209;SDS011;90;48.810;9.120;2023-05-23T05:24:08;78.30;;;39.07;;
209;SDS011;90;48.810;9.120;2023-05-23T05:26:35;109.40;;;46.73;;
209;SDS011;90;48.810;9.120;2023-05-23T05:29:03;102.45;;;47.58;;
209;SDS011;90;48.810;9.120;2023-05-23T05:31:30;101.63;;;47.97;;
209;SDS011;90;48.810;9.120;2023-05-23T05:33:56;105.10;;;47.73;;
209;SDS011;90;48.810;9.120;2023-05-23T05:36:23;101.87;;;47.87;;
209;SDS011;90;48.810;9.120;2023-05-23T05:38:50;105.03;;;48.00;;
209;SDS011;90;48.810;9.120;2023-05-23T05:41:17;107.97;;;50.30;;
209;SDS011;90;48.810;9.120;2023-05-23T05:43:44;107.07;;;48.57;;
209;SDS011;90;48.810;9.120;2023-05-23T05:46:12;94.70;;;46.70;;
209;SDS011;90;48.810;9.120;2023-05-23T05:48:39;98.17;;;43.57;;
209;SDS011;90;48.810;9.120;2023-05-23T05:51:06;105.00;;;48.53;;
209;SDS011;90;48.810;9.120;2023-05-23T05:53:32;102.87;;;48.07;;
209;SDS011;90;48.810;9.120;2023-05-23T05:55:59;97.20;;;46.43;;
209;SDS011;90;48.810;9.120;2023-05-23T05:58:26;102.47;;;46.40;;
209;SDS011;90;48.810;9.120;2023-05-23T06:00:53;101.93;;;47.50;;
209;SDS011;90;48.810;9.120;2023-05-23T06:03:21;106.80;;;46.87;;
209;SDS011;90;48.810;9.120;2023-05-23T06:05:48;109.13;;;49.93;;
209;SDS011;90;48.810;9.120;2023-05-23T06:08:15;109.77;;;48.93;;
209;SDS011;90;48.810;9.120;2023-05-23T06:10:41;109.80;;;49.40;;
209;SDS011;90;48.810;9.120;2023-05-23T06:13:09;112.43;;;49.83;;
209;SDS011;90;48.810;9.120;2023-05-23T06:15:35;104.07;;;48.27;;
209;SDS011;90;48.810;9.120;2023-05-23T06:18:02;99.73;;;47.97;;
209;SDS011;90;48.810;9.120;2023-05-23T06:20:30;105.87;;;48.60;;
209;SDS011;90;48.810;9.120;2023-05-23T06:22:57;106.73;;;47.90;;
209;SDS011;90;48.810;9.120;2023-05-23T06:25:24;103.00;;;47.10;;
209;SDS011;90;48.810;9.120;2023-05-23T06:27:50;103.27;;;47.00;;
209;SDS011;90;48.810;9.120;2023-05-23T06:30:17;104.10;;;47.43;;
209;SDS011;90;48.810;9.120;2023-05-23T06:32:44;92.03;;;45.20;;
209;SDS011;90;48.810;9.120;2023-05-23T06:35:11;107.73;;;46.80;;
209;SDS011;90;48.810;9.120;2023-05-23T06:37:39;90.13;;;44.43;;
209;SDS011;90;48.810;9.120;2023-05-23T06:40:09;94.57;;;44.87;;
209;SDS011;90;48.810;9.120;2023-05-23T06:42:38;97.60;;;44.70;;
209;SDS011;90;48.810;9.120;2023-05-23T06:45:05;84.03;;;42.00;;
209;SDS011;90;48.810;9.120;2023-05-23T06:47:32;98.40;;;44.00;;
209;SDS011;90;48.810;9.120;2023-05-23T06:49:59;96.23;;;44.33;;
209;SDS011;90;48.810;9.120;2023-05-23T06:52:25;85.97;;;43.37;;
209;SDS011;90;48.810;9.120;2023-05-23T06:54:53;98.47;;;44.13;;
209;SDS011;90;48.810;9.120;2023-05-23T06:57:20;98.03;;;43.27;;
209;SDS011;90;48.810;9.120;2023-05-23T06:59:47;89.70;;;43.93;;
209;SDS011;90;48.810;9.120;2023-05-23T07:02:13;92.43;;;45.13;;
209;SDS011;90;48.810;9.120;2023-05-23T07:04:40;92.87;;;42.47;;
209;SDS011;90;48.810;9.120;2023-05-23T07:07:07;84.50;;;41.27;;
209;SDS011;90;48.810;9.120;2023-05-23T07:09:33;80.37;;;39.73;;
209;SDS011;90;48.810;9.120;2023-05-23T07:12:02;74.40;;;38.70;;
209;SDS011;90;48.810;9.120;2023-05-23T07:14:28;75.53;;;38.67;;
209;SDS011;90;48.810;9.120;2023-05-23T07:16:55;82.10;;;38.67;;
209;SDS011;90;48.810;9.120;2023-05-23T07:19:22;69.73;;;37.90;;
209;SDS011;90;48.810;9.120;2023-05-23T07:21:48;76.60;;;40.83;;
209;SDS011;90;48.810;9.120;2023-05-23T07:24:15;74.20;;;38.23;;
209;SDS011;90;48.810;9.120;2023-05-23T07:26:42;68.57;;;35.77;;
209;SDS011;90;48.810;9.120;2023-05-23T07:29:10;72.40;;;38.97;;
209;SDS011;90;48.810;9.120;2023-05-23T07:31:36;76.20;;;39.33;;
209;SDS011;90;48.810;9.120;2023-05-23T07:34:04;88.37;;;41.27;;
209;SDS011;90;48.810;9.120;2023-05-23T07:36:30;82.40;;;41.33;;
209;SDS011;90;48.810;9.120;2023-05-23T07:38:59;94.20;;;43.10;;
209;SDS011;90;48.810;9.120;2023-05-23T07:41:26;84.70;;;41.97;;
209;SDS011;90;48.810;9.120;2023-05-23T07:43:53;74.13;;;38.20;;
209;SDS011;90;48.810;9.120;2023-05-23T07:46:21;72.83;;;38.40;;
209;SDS011;90;48.810;9.120;2023-05-23T07:48:48;63.40;;;33.33;;
209;SDS011;90;48.810;9.120;2023-05-23T07:51:14;58.17;;;32.60;;
209;SDS011;90;48.810;9.120;2023-05-23T07:53:44;58.90;;;30.37;;
209;SDS011;90;48.810;9.120;2023-05-23T07:56:10;59.77;;;31.77;;
209;SDS011;90;48.810;9.120;2023-05-23T07:58:37;53.27;;;30.30;;
209;SDS011;90;48.810;9.120;2023-05-23T08:01:04;53.27;;;29.60;;
209;SDS011;90;48.810;9.120;2023-05-23T08:03:33;57.30;;;30.33;;
209;SDS011;90;48.810;9.120;2023-05-23T08:06:00;62.00;;;31.43;;
209;SDS011;90;48.810;9.120;2023-05-23T08:08:26;60.07;;;32.60;;
209;SDS011;90;48.810;9.120;2023-05-23T08:10:53;64.20;;;33.27;;
209;SDS011;90;48.810;9.120;2023-05-23T08:13:20;57.53;;;32.07;;
209;SDS011;90;48.810;9.120;2023-05-23T08:15:47;54.00;;;29.47;;
209;SDS011;90;48.810;9.120;2023-05-23T08:18:13;52.17;;;29.90;;
209;SDS011;90;48.810;9.120;2023-05-23T08:20:42;55.97;;;29.43;;
209;SDS011;90;48.810;9.120;2023-05-23T08:23:08;53.27;;;29.20;;
209;SDS011;90;48.810;9.120;2023-05-23T08:25:36;50.70;;;28.40;;
209;SDS011;90;48.810;9.120;2023-05-23T08:28:03;50.90;;;29.80;;
209;SDS011;90;48.810;9.120;2023-05-23T08:30:30;54.73;;;29.10;;
209;SDS011;90;48.810;9.120;2023-05-23T08:32:58;46.50;;;27.60;;
209;SDS011;90;48.810;9.120;2023-05-23T08:35:28;41.33;;;25.23;;
209;SDS011;90;48.810;9.120;2023-05-23T08:38:00;46.77;;;26.80;;
209;SDS011;90;48.810;9.120;2023-05-23T08:40:27;47.07;;;26.13;;
209;SDS011;90;48.810;9.120;2023-05-23T08:42:56;51.23;;;28.43;;
209;SDS011;90;48.810;9.120;2023-05-23T08:45:23;42.70;;;25.10;;
209;SDS011;90;48.810;9.120;2023-05-23T08:47:50;53.63;;;28.00;;
209;SDS011;90;48.810;9.120;2023-05-23T08:50:19;45.73;;;27.03;;
209;SDS011;90;48.810;9.120;2023-05-23T08:52:47;46.63;;;27.40;;
209;SDS011;90;48.810;9.120;2023-05-23T08:55:24;47.73;;;27.97;;
209;SDS011;90;48.810;9.120;2023-05-23T08:57:52;46.40;;;29.07;;
209;SDS011;90;48.810;9.120;2023-05-23T09:00:20;46.73;;;27.73;;
209;SDS011;90;48.810;9.120;2023-05-23T09:02:47;51.10;;;29.60;;
209;SDS011;90;48.810;9.120;2023-05-23T09:05:14;49.67;;;28.23;;
209;SDS011;90;48.810;9.120;2023-05-23T09:07:41;47.33;;;25.23;;
209;SDS011;90;48.810;9.120;2023-05-23T09:10:09;40.90;;;25.80;;
209;SDS011;90;48.810;9.120;2023-05-23T09:12:37;43.23;;;24.73;;
209;SDS011;90;48.810;9.120;2023-05-23T09:15:05;56.77;;;25.10;;
209;SDS011;90;48.810;9.120;2023-05-23T09:17:33;40.13;;;24.47;;
209;SDS011;90;48.810;9.120;2023-05-23T09:20:01;36.60;;;22.90;;
209;SDS011;90;48.810;9.120;2023-05-23T09:22:29;42.03;;;24.90;;
209;SDS011;90;48.810;9.120;2023-05-23T09:24:56;36.63;;;23.10;;
209;SDS011;90;48.810;9.120;2023-05-23T09:27:23;44.60;;;24.83;;
209;SDS011;90;48.810;9.120;2023-05-23T09:29:51;36.93;;;23.70;;
209;SDS011;90;48.810;9.120;2023-05-23T09:32:18;38.38;;;23.10;;
209;SDS011;90;48.810;9.120;2023-05-23T09:34:54;36.70;;;22.80;;
209;SDS011;90;48.810;9.120;2023-05-23T09:37:21;36.10;;;21.97;;
209;SDS011;90;48.810;9.120;2023-05-23T09:39:51;33.37;;;20.47;;
209;SDS011;90;48.810;9.120;2023-05-23T09:42:19;36.80;;;23.87;;
209;SDS011;90;48.810;9.120;2023-05-23T09:44:47;36.73;;;21.90;;
209;SDS011;90;48.810;9.120;2023-05-23T09:47:15;34.03;;;20.50;;
209;SDS011;90;48.810;9.120;2023-05-23T09:49:42;34.90;;;20.47;;
209;SDS011;90;48.810;9.120;2023-05-23T09:52:09;35.10;;;21.67;;
209;SDS011;90;48.810;9.120;2023-05-23T09:54:36;33.23;;;19.20;;
209;SDS011;90;48.810;9.120;2023-05-23T09:57:03;31.60;;;20.27;;
209;SDS011;90;48.810;9.120;2023-05-23T09:59:36;31.80;;;19.20;;
209;SDS011;90;48.810;9.120;2023-05-23T10:02:05;28.00;;;18.73;;
209;SDS011;90;48.810;9.120;2023-05-23T10:04:34;30.37;;;19.07;;
209;SDS011;90;48.810;9.120;2023-05-23T10:07:04;27.20;;;18.57;;
209;SDS011;90;48.810;9.120;2023-05-23T10:09:38;22.77;;;16.67;;
209;SDS011;90;48.810;9.120;2023-05-23T10:12:21;31.70;;;18.07;;
209;SDS011;90;48.810;9.120;2023-05-23T10:15:08;23.43;;;16.20;;
209;SDS011;90;48.810;9.120;2023-05-23T10:17:39;27.17;;;17.50;;
209;SDS011;90;48.810;9.120;2023-05-23T10:20:21;24.37;;;16.83;;
209;SDS011;90;48.810;9.120;2023-05-23T10:22:51;27.73;;;16.50;;
209;SDS011;90;48.810;9.120;2023-05-23T10:25:19;21.63;;;15.30;;
209;SDS011;90;48.810;9.120;2023-05-23T10:27:46;22.90;;;16.43;;
209;SDS011;90;48.810;9.120;2023-05-23T10:30:14;28.57;;;18.60;;
209;SDS011;90;48.810;9.120;2023-05-23T10:32:41;21.73;;;15.90;;
209;SDS011;90;48.810;9.120;2023-05-23T10:35:09;22.20;;;15.90;;
209;SDS011;90;48.810;9.120;2023-05-23T10:37:46;21.77;;;15.07;;
209;SDS011;90;48.810;9.120;2023-05-23T10:40:20;22.67;;;14.83;;
209;SDS011;90;48.810;9.120;2023-05-23T10:42:57;20.77;;;15.37;;
209;SDS011;90;48.810;9.120;2023-05-23T10:45:27;24.10;;;15.90;;
209;SDS011;90;48.810;9.120;2023-05-23T10:47:55;24.77;;;17.10;;
209;SDS011;90;48.810;9.120;2023-05-23T10:50:29;23.07;;;17.23;;
209;SDS011;90;48.810;9.120;2023-05-23T10:52:59;24.10;;;17.53;;
209;SDS011;90;48.810;9.120;2023-05-23T10:55:30;25.03;;;16.67;;
209;SDS011;90;48.810;9.120;2023-05-23T10:58:10;21.43;;;16.33;;
209;SDS011;90;48.810;9.120;2023-05-23T11:00:46;25.10;;;16.20;;
209;SDS011;90;48.810;9.120;2023-05-23T11:03:17;20.27;;;14.70;;
209;SDS011;90;48.810;9.120;2023-05-23T11:05:46;19.70;;;15.40;;
209;SDS011;90;48.810;9.120;2023-05-23T11:08:19;18.90;;;14.47;;
209;SDS011;90;48.810;9.120;2023-05-23T11:10:52;22.30;;;14.23;;
209;SDS011;90;48.810;9.120;2023-05-23T11:13:20;23.70;;;13.30;;
209;SDS011;90;48.810;9.120;2023-05-23T11:15:48;20.00;;;14.50;;
209;SDS011;90;48.810;9.120;2023-05-23T11:18:22;17.70;;;13.67;;
209;SDS011;90;48.810;9.120;2023-05-23T11:20:52;19.25;;;13.70;;
209;SDS011;90;48.810;9.120;2023-05-23T11:23:21;23.50;;;15.17;;
209;SDS011;90;48.810;9.120;2023-05-23T11:25:49;24.70;;;16.60;;
209;SDS011;90;48.810;9.120;2023-05-23T11:28:17;22.57;;;16.93;;
209;SDS011;90;48.810;9.120;2023-05-23T11:30:46;24.93;;;16.73;;
209;SDS011;90;48.810;9.120;2023-05-23T11:33:14;26.20;;;17.70;;
209;SDS011;90;48.810;9.120;2023-05-23T11:35:43;20.37;;;14.90;;
209;SDS011;90;48.810;9.120;2023-05-23T11:38:10;28.57;;;17.03;;
209;SDS011;90;48.810;9.120;2023-05-23T11:40:40;27.93;;;18.83;;
209;SDS011;90;48.810;9.120;2023-05-23T11:43:09;23.17;;;15.90;;
209;SDS011;90;48.810;9.120;2023-05-23T11:45:37;24.83;;;16.40;;
209;SDS011;90;48.810;9.120;2023-05-23T11:48:05;23.23;;;16.90;;
209;SDS011;90;48.810;9.120;2023-05-23T11:50:32;20.30;;;14.53;;
209;SDS011;90;48.810;9.120;2023-05-23T11:52:59;27.70;;;16.90;;
209;SDS011;90;48.810;9.120;2023-05-23T11:55:26;23.80;;;15.93;;
209;SDS011;90;48.810;9.120;2023-05-23T11:57:55;22.43;;;14.90;;
209;SDS011;90;48.810;9.120;2023-05-23T12:00:22;20.60;;;15.03;;
209;SDS011;90;48.810;9.120;2023-05-23T12:02:49;20.93;;;15.90;;
209;SDS011;90;48.810;9.120;2023-05-23T12:05:16;20.53;;;15.60;;
209;SDS011;90;48.810;9.120;2023-05-23T12:07:43;18.83;;;14.67;;
209;SDS011;90;48.810;9.120;2023-05-23T12:10:11;19.23;;;13.70;;
209;SDS011;90;48.810;9.120;2023-05-23T12:12:39;17.70;;;13.43;;
209;SDS011;90;48.810;9.120;2023-05-23T12:15:08;17.23;;;14.10;;
209;SDS011;90;48.810;9.120;2023-05-23T12:17:36;18.20;;;14.10;;
209;SDS011;90;48.810;9.120;2023-05-23T12:20:04;20.20;;;14.23;;
209;SDS011;90;48.810;9.120;2023-05-23T12:22:31;20.35;;;13.75;;
209;SDS011;90;48.810;9.120;2023-05-23T12:24:58;20.60;;;15.07;;
209;SDS011;90;48.810;9.120;2023-05-23T12:27:25;20.00;;;14.10;;
209;SDS011;90;48.810;9.120;2023-05-23T12:30:03;20.00;;;13.67;;
209;SDS011;90;48.810;9.120;2023-05-23T12:32:32;17.70;;;12.93;;
209;SDS011;90;48.810;9.120;2023-05-23T12:34:59;16.20;;;12.37;;
209;SDS011;90;48.810;9.120;2023-05-23T12:37:26;18.83;;;11.70;;
209;SDS011;90;48.810;9.120;2023-05-23T12:39:53;15.83;;;12.07;;
209;SDS011;90;48.810;9.120;2023-05-23T12:42:20;15.50;;;12.37;;
209;SDS011;90;48.810;9.120;2023-05-23T12:44:49;16.27;;;12.90;;
209;SDS011;90;48.810;9.120;2023-05-23T12:47:16;16.03;;;10.80;;
209;SDS011;90;48.810;9.120;2023-05-23T12:49:44;14.80;;;11.00;;
209;SDS011;90;48.810;9.120;2023-05-23T12:52:12;16.97;;;11.20;;
209;SDS011;90;48.810;9.120;2023-05-23T12:54:38;15.97;;;11.93;;
209;SDS011;90;48.810;9.120;2023-05-23T12:57:05;14.43;;;11.30;;
209;SDS011;90;48.810;9.120;2023-05-23T12:59:32;13.80;;;11.40;;
209;SDS011;90;48.810;9.120;2023-05-23T13:01:58;17.27;;;11.23;;
209;SDS011;90;48.810;9.120;2023-05-23T13:04:26;12.23;;;11.00;;
209;SDS011;90;48.810;9.120;2023-05-23T13:06:54;11.03;;;9.83;;
209;SDS011;90;48.810;9.120;2023-05-23T13:09:21;14.20;;;11.13;;
209;SDS011;90;48.810;9.120;2023-05-23T13:11:48;13.90;;;10.37;;
209;SDS011;90;48.810;9.120;2023-05-23T13:14:14;12.20;;;10.20;;
209;SDS011;90;48.810;9.120;2023-05-23T13:16:41;12.07;;;9.33;;
209;SDS011;90;48.810;9.120;2023-05-23T13:19:09;11.73;;;10.70;;
209;SDS011;90;48.810;9.120;2023-05-23T13:21:36;12.07;;;10.80;;
209;SDS011;90;48.810;9.120;2023-05-23T13:24:04;13.63;;;10.27;;
209;SDS011;90;48.810;9.120;2023-05-23T13:26:32;17.30;;;11.60;;
209;SDS011;90;48.810;9.120;2023-05-23T13:28:59;14.37;;;11.00;;
209;SDS011;90;48.810;9.120;2023-05-23T13:31:26;11.57;;;9.90;;
209;SDS011;90;48.810;9.120;2023-05-23T13:33:53;12.27;;;10.17;;
209;SDS011;90;48.810;9.120;2023-05-23T13:36:19;14.30;;;9.40;;
209;SDS011;90;48.810;9.120;2023-05-23T13:38:46;11.30;;;9.10;;
209;SDS011;90;48.810;9.120;2023-05-23T13:41:15;14.73;;;10.37;;
209;SDS011;90;48.810;9.120;2023-05-23T13:43:42;11.23;;;9.80;;
209;SDS011;90;48.810;9.120;2023-05-23T13:46:08;12.13;;;10.50;;
209;SDS011;90;48.810;9.120;2023-05-23T13:48:35;8.97;;;8.47;;
209;SDS011;90;48.810;9.120;2023-05-23T13:51:02;15.67;;;9.93;;
209;SDS011;90;48.810;9.120;2023-05-23T13:53:29;14.03;;;10.20;;
209;SDS011;90;48.810;9.120;2023-05-23T13:55:55;11.60;;;9.47;;
209;SDS011;90;48.810;9.120;2023-05-23T13:58:24;10.83;;;9.80;;
209;SDS011;90;48.810;9.120;2023-05-23T14:00:51;12.80;;;9.70;;
209;SDS011;90;48.810;9.120;2023-05-23T14:03:18;13.03;;;10.20;;
209;SDS011;90;48.810;9.120;2023-05-23T14:05:45;13.93;;;10.43;;
209;SDS011;90;48.810;9.120;2023-05-23T14:08:12;12.30;;;10.40;;
209;SDS011;90;48.810;9.120;2023-05-23T14:10:39;19.07;;;9.70;;
209;SDS011;90;48.810;9.120;2023-05-23T14:13:06;12.03;;;9.80;;
209;SDS011;90;48.810;9.120;2023-05-23T14:15:35;13.20;;;9.70;;
209;SDS011;90;48.810;9.120;2023-05-23T14:18:03;14.33;;;10.50;;
209;SDS011;90;48.810;9.120;2023-05-23T14:20:30;17.40;;;10.23;;
209;SDS011;90;48.810;9.120;2023-05-23T14:22:57;11.57;;;9.30;;
209;SDS011;90;48.810;9.120;2023-05-23T14:25:24;13.13;;;11.20;;
209;SDS011;90;48.810;9.120;2023-05-23T14:27:50;10.18;;;9.20;;
209;SDS011;90;48.810;9.120;2023-05-23T14:30:17;11.67;;;10.33;;
209;SDS011;90;48.810;9.120;2023-05-23T14:32:45;10.27;;;9.20;;
209;SDS011;90;48.810;9.120;2023-05-23T14:35:12;13.47;;;9.80;;
209;SDS011;90;48.810;9.120;2023-05-23T14:37:39;11.93;;;10.10;;
209;SDS011;90;48.810;9.120;2023-05-23T14:40:06;10.37;;;9.80;;
209;SDS011;90;48.810;9.120;2023-05-23T14:42:34;12.30;;;9.47;;
209;SDS011;90;48.810;9.120;2023-05-23T14:45:01;18.20;;;11.17;;
209;SDS011;90;48.810;9.120;2023-05-23T14:47:28;10.87;;;9.83;;
209;SDS011;90;48.810;9.120;2023-05-23T14:49:57;13.63;;;10.50;;
209;SDS011;90;48.810;9.120;2023-05-23T14:52:24;10.70;;;8.70;;
209;SDS011;90;48.810;9.120;2023-05-23T14:54:50;11.73;;;9.77;;
209;SDS011;90;48.810;9.120;2023-05-23T14:57:17;19.13;;;9.90;;
209;SDS011;90;48.810;9.120;2023-05-23T14:59:44;8.97;;;8.50;;
209;SDS011;90;48.810;9.120;2023-05-23T15:02:11;10.13;;;9.63;;
209;SDS011;90;48.810;9.120;2023-05-23T15:04:38;11.73;;;10.30;;
209;SDS011;90;48.810;9.120;2023-05-23T15:07:06;10.37;;;9.63;;
209;SDS011;90;48.810;9.120;2023-05-23T15:09:32;9.67;;;9.17;;
209;SDS011;90;48.810;9.120;2023-05-23T15:11:59;10.87;;;9.50;;
209;SDS011;90;48.810;9.120;2023-05-23T15:14:26;9.07;;;8.57;;
209;SDS011;90;48.810;9.120;2023-05-23T15:16:56;7.90;;;7.53;;
209;SDS011;90;48.810;9.120;2023-05-23T15:19:31;8.30;;;7.30;;
209;SDS011;90;48.810;9.120;2023-05-23T15:21:58;8.90;;;6.87;;
209;SDS011;90;48.810;9.120;2023-05-23T15:24:26;12.53;;;8.20;;
209;SDS011;90;48.810;9.120;2023-05-23T15:26:53;13.80;;;10.37;;
209;SDS011;90;48.810;9.120;2023-05-23T15:29:20;17.90;;;10.67;;
209;SDS011;90;48.810;9.120;2023-05-23T15:31:49;12.63;;;10.10;;